Terminal Aerodrome Forecast
Issued by NWS

Home | Current Version | Previous Version | Text Only | Print | Product List | Glossary On
Versions: 1 2 3 4 5 6 7 8 9 10 11 12 13 14 15 16 17 18 19 20 21 22 23 24
198
FTUS41 KRLX 300910 AAA
TAFCKB
TAF AMD
KCKB 300910Z 3009/0106 00000KT 6SM BR SCT050
     FM301300 00000KT P6SM BKN110
     FM301900 18004KT 5SM HZ OVC040
     FM302000 16004KT 3SM SHRA HZ OVC030
     FM010400 15005KT 5SM SHRA HZ OVC030=

USA.gov is the U.S. government's official web portal to all federal, state and local government web resources and services.